sensor_id;sensor_type;location;lat;lon;timestamp;temperature;humidity
16732;DHT22;8484;50.904;9.192;2022-08-19T00:00:37;18.30;99.90
16732;DHT22;8484;50.904;9.192;2022-08-19T00:03:05;18.40;99.90
16732;DHT22;8484;50.904;9.192;2022-08-19T00:05:32;18.40;99.90
16732;DHT22;8484;50.904;9.192;2022-08-19T00:07:59;18.50;99.90
16732;DHT22;8484;50.904;9.192;2022-08-19T00:10:26;18.50;99.90
16732;DHT22;8484;50.904;9.192;2022-08-19T00:12:53;18.50;99.90
16732;DHT22;8484;50.904;9.192;2022-08-19T00:15:21;18.60;99.90
16732;DHT22;8484;50.904;9.192;2022-08-19T00:17:48;18.60;99.90
16732;DHT22;8484;50.904;9.192;2022-08-19T00:20:18;18.60;99.90
16732;DHT22;8484;50.904;9.192;2022-08-19T00:22:45;18.50;99.90
16732;DHT22;8484;50.904;9.192;2022-08-19T00:25:13;18.40;99.90
16732;DHT22;8484;50.904;9.192;2022-08-19T00:27:40;18.50;99.90
16732;DHT22;8484;50.904;9.192;2022-08-19T00:30:08;18.50;99.90
16732;DHT22;8484;50.904;9.192;2022-08-19T00:32:37;18.40;99.90
16732;DHT22;8484;50.904;9.192;2022-08-19T00:35:05;18.40;99.90
16732;DHT22;8484;50.904;9.192;2022-08-19T00:37:32;18.40;99.90
16732;DHT22;8484;50.904;9.192;2022-08-19T00:40:03;18.40;99.90
16732;DHT22;8484;50.904;9.192;2022-08-19T00:42:31;18.30;99.90
16732;DHT22;8484;50.904;9.192;2022-08-19T00:44:58;18.30;99.90
16732;DHT22;8484;50.904;9.192;2022-08-19T00:47:25;18.30;99.90
16732;DHT22;8484;50.904;9.192;2022-08-19T00:49:56;18.50;99.90
16732;DHT22;8484;50.904;9.192;2022-08-19T00:52:27;18.20;99.90
16732;DHT22;8484;50.904;9.192;2022-08-19T00:54:56;18.20;99.90
16732;DHT22;8484;50.904;9.192;2022-08-19T00:57:27;18.20;99.90
16732;DHT22;8484;50.904;9.192;2022-08-19T00:59:56;18.30;99.90
16732;DHT22;8484;50.904;9.192;2022-08-19T01:02:25;18.30;99.90
16732;DHT22;8484;50.904;9.192;2022-08-19T01:04:54;18.60;99.90
16732;DHT22;8484;50.904;9.192;2022-08-19T01:07:21;18.60;99.90
16732;DHT22;8484;50.904;9.192;2022-08-19T01:09:48;18.60;99.90
16732;DHT22;8484;50.904;9.192;2022-08-19T01:12:16;18.60;99.90
16732;DHT22;8484;50.904;9.192;2022-08-19T01:14:43;18.50;99.90
16732;DHT22;8484;50.904;9.192;2022-08-19T01:17:12;18.50;99.90
16732;DHT22;8484;50.904;9.192;2022-08-19T01:19:41;18.50;99.90
16732;DHT22;8484;50.904;9.192;2022-08-19T01:22:14;18.60;99.90
16732;DHT22;8484;50.904;9.192;2022-08-19T01:24:44;18.50;99.90
16732;DHT22;8484;50.904;9.192;2022-08-19T01:27:11;18.60;99.90
16732;DHT22;8484;50.904;9.192;2022-08-19T01:29:40;18.60;99.90
16732;DHT22;8484;50.904;9.192;2022-08-19T01:32:09;18.60;99.90
16732;DHT22;8484;50.904;9.192;2022-08-19T01:34:37;18.70;99.90
16732;DHT22;8484;50.904;9.192;2022-08-19T01:37:07;18.80;99.90
16732;DHT22;8484;50.904;9.192;2022-08-19T01:39:37;18.90;99.90
16732;DHT22;8484;50.904;9.192;2022-08-19T01:42:06;18.90;99.90
16732;DHT22;8484;50.904;9.192;2022-08-19T01:44:36;19.00;99.90
16732;DHT22;8484;50.904;9.192;2022-08-19T01:47:03;18.90;99.90
16732;DHT22;8484;50.904;9.192;2022-08-19T01:49:31;18.80;99.90
16732;DHT22;8484;50.904;9.192;2022-08-19T01:51:59;18.80;99.90
16732;DHT22;8484;50.904;9.192;2022-08-19T01:54:27;18.80;99.90
16732;DHT22;8484;50.904;9.192;2022-08-19T01:56:58;18.80;99.90
16732;DHT22;8484;50.904;9.192;2022-08-19T01:59:27;18.80;99.90
16732;DHT22;8484;50.904;9.192;2022-08-19T02:01:54;18.80;99.90
16732;DHT22;8484;50.904;9.192;2022-08-19T02:04:21;18.80;99.90
16732;DHT22;8484;50.904;9.192;2022-08-19T02:06:48;18.80;99.90
16732;DHT22;8484;50.904;9.192;2022-08-19T02:09:15;18.80;99.90
16732;DHT22;8484;50.904;9.192;2022-08-19T02:11:42;18.90;99.90
16732;DHT22;8484;50.904;9.192;2022-08-19T02:14:09;18.90;99.90
16732;DHT22;8484;50.904;9.192;2022-08-19T02:16:37;18.90;99.90
16732;DHT22;8484;50.904;9.192;2022-08-19T02:19:06;18.90;99.90
16732;DHT22;8484;50.904;9.192;2022-08-19T02:21:33;18.80;99.90
16732;DHT22;8484;50.904;9.192;2022-08-19T02:24:01;19.00;99.90
16732;DHT22;8484;50.904;9.192;2022-08-19T02:26:28;19.00;99.90
16732;DHT22;8484;50.904;9.192;2022-08-19T02:28:56;19.10;99.90
16732;DHT22;8484;50.904;9.192;2022-08-19T02:31:24;19.10;99.90
16732;DHT22;8484;50.904;9.192;2022-08-19T02:33:53;19.30;99.90
16732;DHT22;8484;50.904;9.192;2022-08-19T02:36:21;19.20;99.90
16732;DHT22;8484;50.904;9.192;2022-08-19T02:38:48;19.10;99.90
16732;DHT22;8484;50.904;9.192;2022-08-19T02:41:17;19.20;99.90
16732;DHT22;8484;50.904;9.192;2022-08-19T02:43:45;19.20;99.90
16732;DHT22;8484;50.904;9.192;2022-08-19T02:46:14;19.20;99.90
16732;DHT22;8484;50.904;9.192;2022-08-19T02:48:43;19.30;99.90
16732;DHT22;8484;50.904;9.192;2022-08-19T02:51:17;19.20;99.90
16732;DHT22;8484;50.904;9.192;2022-08-19T02:53:45;19.20;99.90
16732;DHT22;8484;50.904;9.192;2022-08-19T02:56:12;19.10;99.90
16732;DHT22;8484;50.904;9.192;2022-08-19T02:58:40;19.00;99.90
16732;DHT22;8484;50.904;9.192;2022-08-19T03:01:07;19.20;99.90
16732;DHT22;8484;50.904;9.192;2022-08-19T03:03:34;19.10;99.90
16732;DHT22;8484;50.904;9.192;2022-08-19T03:06:09;19.10;99.90
16732;DHT22;8484;50.904;9.192;2022-08-19T03:08:38;19.20;99.90
16732;DHT22;8484;50.904;9.192;2022-08-19T03:11:06;19.30;99.90
16732;DHT22;8484;50.904;9.192;2022-08-19T03:13:38;19.30;99.90
16732;DHT22;8484;50.904;9.192;2022-08-19T03:16:05;19.30;99.90
16732;DHT22;8484;50.904;9.192;2022-08-19T03:18:32;19.40;99.90
16732;DHT22;8484;50.904;9.192;2022-08-19T03:20:59;19.40;99.90
16732;DHT22;8484;50.904;9.192;2022-08-19T03:23:26;19.50;99.90
16732;DHT22;8484;50.904;9.192;2022-08-19T03:25:54;19.40;99.90
16732;DHT22;8484;50.904;9.192;2022-08-19T03:28:21;19.60;99.90
16732;DHT22;8484;50.904;9.192;2022-08-19T03:30:56;19.60;99.90
16732;DHT22;8484;50.904;9.192;2022-08-19T03:33:24;19.60;99.90
16732;DHT22;8484;50.904;9.192;2022-08-19T03:36:03;19.60;99.90
16732;DHT22;8484;50.904;9.192;2022-08-19T03:38:31;19.60;99.90
16732;DHT22;8484;50.904;9.192;2022-08-19T03:41:02;19.60;99.90
16732;DHT22;8484;50.904;9.192;2022-08-19T03:43:32;19.60;99.90
16732;DHT22;8484;50.904;9.192;2022-08-19T03:46:01;19.60;99.90
16732;DHT22;8484;50.904;9.192;2022-08-19T03:48:30;19.50;99.90
16732;DHT22;8484;50.904;9.192;2022-08-19T03:50:57;19.60;99.90
16732;DHT22;8484;50.904;9.192;2022-08-19T03:53:25;19.50;99.90
16732;DHT22;8484;50.904;9.192;2022-08-19T03:55:52;19.50;99.90
16732;DHT22;8484;50.904;9.192;2022-08-19T03:58:22;19.40;99.90
16732;DHT22;8484;50.904;9.192;2022-08-19T04:00:49;19.30;99.90
16732;DHT22;8484;50.904;9.192;2022-08-19T04:03:16;19.30;99.90
16732;DHT22;8484;50.904;9.192;2022-08-19T04:05:44;19.30;99.90
16732;DHT22;8484;50.904;9.192;2022-08-19T04:08:12;19.40;99.90
16732;DHT22;8484;50.904;9.192;2022-08-19T04:10:41;19.30;99.90
16732;DHT22;8484;50.904;9.192;2022-08-19T04:13:08;19.30;99.90
16732;DHT22;8484;50.904;9.192;2022-08-19T04:15:40;19.30;99.90
16732;DHT22;8484;50.904;9.192;2022-08-19T04:18:08;19.20;99.90
16732;DHT22;8484;50.904;9.192;2022-08-19T04:20:40;19.30;99.90
16732;DHT22;8484;50.904;9.192;2022-08-19T04:23:07;19.40;99.90
16732;DHT22;8484;50.904;9.192;2022-08-19T04:25:38;19.40;99.90
16732;DHT22;8484;50.904;9.192;2022-08-19T04:28:06;19.40;99.90
16732;DHT22;8484;50.904;9.192;2022-08-19T04:30:41;19.40;99.90
16732;DHT22;8484;50.904;9.192;2022-08-19T04:33:08;19.50;99.90
16732;DHT22;8484;50.904;9.192;2022-08-19T04:35:37;19.50;99.90
16732;DHT22;8484;50.904;9.192;2022-08-19T04:38:06;19.40;99.90
16732;DHT22;8484;50.904;9.192;2022-08-19T04:40:34;19.40;99.90
16732;DHT22;8484;50.904;9.192;2022-08-19T04:43:19;19.40;99.90
16732;DHT22;8484;50.904;9.192;2022-08-19T04:45:47;19.40;99.90
16732;DHT22;8484;50.904;9.192;2022-08-19T04:48:14;19.40;99.90
16732;DHT22;8484;50.904;9.192;2022-08-19T04:50:42;19.30;99.90
16732;DHT22;8484;50.904;9.192;2022-08-19T04:53:09;19.30;99.90
16732;DHT22;8484;50.904;9.192;2022-08-19T04:55:41;19.40;99.90
16732;DHT22;8484;50.904;9.192;2022-08-19T04:58:08;19.40;99.90
16732;DHT22;8484;50.904;9.192;2022-08-19T05:00:38;19.40;99.90
16732;DHT22;8484;50.904;9.192;2022-08-19T05:03:06;19.40;99.90
16732;DHT22;8484;50.904;9.192;2022-08-19T05:05:38;19.50;99.90
16732;DHT22;8484;50.904;9.192;2022-08-19T05:08:05;19.60;99.90
16732;DHT22;8484;50.904;9.192;2022-08-19T05:10:35;19.50;99.90
16732;DHT22;8484;50.904;9.192;2022-08-19T05:13:02;19.50;99.90
16732;DHT22;8484;50.904;9.192;2022-08-19T05:15:29;19.50;99.90
16732;DHT22;8484;50.904;9.192;2022-08-19T05:17:56;19.50;99.90
16732;DHT22;8484;50.904;9.192;2022-08-19T05:20:42;19.60;99.90
16732;DHT22;8484;50.904;9.192;2022-08-19T05:23:26;19.60;99.90
16732;DHT22;8484;50.904;9.192;2022-08-19T05:25:53;19.60;99.90
16732;DHT22;8484;50.904;9.192;2022-08-19T05:28:20;19.60;99.90
16732;DHT22;8484;50.904;9.192;2022-08-19T05:30:47;19.60;99.90
16732;DHT22;8484;50.904;9.192;2022-08-19T05:33:16;19.60;99.90
16732;DHT22;8484;50.904;9.192;2022-08-19T05:35:44;19.70;99.90
16732;DHT22;8484;50.904;9.192;2022-08-19T05:38:11;19.80;99.90
16732;DHT22;8484;50.904;9.192;2022-08-19T05:40:39;19.80;99.90
16732;DHT22;8484;50.904;9.192;2022-08-19T05:43:07;19.70;99.90
16732;DHT22;8484;50.904;9.192;2022-08-19T05:45:38;19.80;99.90
16732;DHT22;8484;50.904;9.192;2022-08-19T05:48:05;20.00;99.90
16732;DHT22;8484;50.904;9.192;2022-08-19T05:50:32;20.00;99.90
16732;DHT22;8484;50.904;9.192;2022-08-19T05:53:00;20.00;99.90
16732;DHT22;8484;50.904;9.192;2022-08-19T05:55:27;20.00;99.90
16732;DHT22;8484;50.904;9.192;2022-08-19T05:57:54;20.20;99.90
16732;DHT22;8484;50.904;9.192;2022-08-19T06:00:20;20.30;99.90
16732;DHT22;8484;50.904;9.192;2022-08-19T06:02:48;20.30;99.90
16732;DHT22;8484;50.904;9.192;2022-08-19T06:05:16;20.30;99.90
16732;DHT22;8484;50.904;9.192;2022-08-19T06:07:43;20.40;99.90
16732;DHT22;8484;50.904;9.192;2022-08-19T06:10:11;20.50;99.90
16732;DHT22;8484;50.904;9.192;2022-08-19T06:12:39;20.50;99.90
16732;DHT22;8484;50.904;9.192;2022-08-19T06:15:09;20.50;99.90
16732;DHT22;8484;50.904;9.192;2022-08-19T06:17:38;20.60;99.90
16732;DHT22;8484;50.904;9.192;2022-08-19T06:20:07;20.70;99.90
16732;DHT22;8484;50.904;9.192;2022-08-19T06:22:38;20.80;99.90
16732;DHT22;8484;50.904;9.192;2022-08-19T06:25:05;21.00;99.90
16732;DHT22;8484;50.904;9.192;2022-08-19T06:27:34;20.90;99.90
16732;DHT22;8484;50.904;9.192;2022-08-19T06:30:02;20.90;99.90
16732;DHT22;8484;50.904;9.192;2022-08-19T06:32:29;21.00;99.90
16732;DHT22;8484;50.904;9.192;2022-08-19T06:34:56;21.10;99.90
16732;DHT22;8484;50.904;9.192;2022-08-19T06:37:23;21.30;99.90
16732;DHT22;8484;50.904;9.192;2022-08-19T06:39:50;21.50;99.90
16732;DHT22;8484;50.904;9.192;2022-08-19T06:42:17;21.80;99.90
16732;DHT22;8484;50.904;9.192;2022-08-19T06:44:47;21.90;99.90
16732;DHT22;8484;50.904;9.192;2022-08-19T06:47:16;22.00;99.90
16732;DHT22;8484;50.904;9.192;2022-08-19T06:49:44;21.70;99.90
16732;DHT22;8484;50.904;9.192;2022-08-19T06:52:12;21.80;99.90
16732;DHT22;8484;50.904;9.192;2022-08-19T06:54:40;21.70;99.90
16732;DHT22;8484;50.904;9.192;2022-08-19T06:57:08;21.60;99.90
16732;DHT22;8484;50.904;9.192;2022-08-19T06:59:38;21.50;99.90
16732;DHT22;8484;50.904;9.192;2022-08-19T07:02:07;21.60;99.90
16732;DHT22;8484;50.904;9.192;2022-08-19T07:04:36;21.50;99.90
16732;DHT22;8484;50.904;9.192;2022-08-19T07:07:06;21.50;99.90
16732;DHT22;8484;50.904;9.192;2022-08-19T07:09:35;21.70;99.90
16732;DHT22;8484;50.904;9.192;2022-08-19T07:12:05;21.90;99.90
16732;DHT22;8484;50.904;9.192;2022-08-19T07:14:33;22.00;99.90
16732;DHT22;8484;50.904;9.192;2022-08-19T07:17:03;22.20;99.90
16732;DHT22;8484;50.904;9.192;2022-08-19T07:19:33;22.40;99.90
16732;DHT22;8484;50.904;9.192;2022-08-19T07:22:01;22.70;99.90
16732;DHT22;8484;50.904;9.192;2022-08-19T07:24:28;22.80;99.90
16732;DHT22;8484;50.904;9.192;2022-08-19T07:26:57;23.10;99.90
16732;DHT22;8484;50.904;9.192;2022-08-19T07:29:27;23.40;99.90
16732;DHT22;8484;50.904;9.192;2022-08-19T07:31:55;23.60;99.90
16732;DHT22;8484;50.904;9.192;2022-08-19T07:34:25;23.70;99.90
16732;DHT22;8484;50.904;9.192;2022-08-19T07:36:54;24.10;99.90
16732;DHT22;8484;50.904;9.192;2022-08-19T07:39:25;24.10;99.90
16732;DHT22;8484;50.904;9.192;2022-08-19T07:41:53;24.20;99.90
16732;DHT22;8484;50.904;9.192;2022-08-19T07:44:20;24.00;99.90
16732;DHT22;8484;50.904;9.192;2022-08-19T07:46:51;24.20;99.90
16732;DHT22;8484;50.904;9.192;2022-08-19T07:49:19;24.40;99.90
16732;DHT22;8484;50.904;9.192;2022-08-19T07:51:48;24.80;99.90
16732;DHT22;8484;50.904;9.192;2022-08-19T07:54:17;25.00;99.90
16732;DHT22;8484;50.904;9.192;2022-08-19T07:56:44;25.10;99.90
16732;DHT22;8484;50.904;9.192;2022-08-19T07:59:11;25.00;99.90
16732;DHT22;8484;50.904;9.192;2022-08-19T08:01:39;24.90;99.90
16732;DHT22;8484;50.904;9.192;2022-08-19T08:04:07;24.90;99.90
16732;DHT22;8484;50.904;9.192;2022-08-19T08:06:51;25.30;99.90
16732;DHT22;8484;50.904;9.192;2022-08-19T08:09:39;25.00;99.90
16732;DHT22;8484;50.904;9.192;2022-08-19T08:12:10;25.40;99.90
16732;DHT22;8484;50.904;9.192;2022-08-19T08:14:39;25.70;99.90
16732;DHT22;8484;50.904;9.192;2022-08-19T08:17:08;25.80;99.90
16732;DHT22;8484;50.904;9.192;2022-08-19T08:19:36;25.20;99.90
16732;DHT22;8484;50.904;9.192;2022-08-19T08:22:03;25.30;99.90
16732;DHT22;8484;50.904;9.192;2022-08-19T08:24:32;25.60;99.90
16732;DHT22;8484;50.904;9.192;2022-08-19T08:27:03;25.50;99.90
16732;DHT22;8484;50.904;9.192;2022-08-19T08:29:30;25.10;99.90
16732;DHT22;8484;50.904;9.192;2022-08-19T08:31:58;24.90;99.90
16732;DHT22;8484;50.904;9.192;2022-08-19T08:34:25;24.90;99.90
16732;DHT22;8484;50.904;9.192;2022-08-19T08:36:52;24.70;99.90
16732;DHT22;8484;50.904;9.192;2022-08-19T08:39:20;24.30;99.90
16732;DHT22;8484;50.904;9.192;2022-08-19T08:41:53;24.30;99.90
16732;DHT22;8484;50.904;9.192;2022-08-19T08:44:28;24.20;99.90
16732;DHT22;8484;50.904;9.192;2022-08-19T08:47:00;24.20;99.90
16732;DHT22;8484;50.904;9.192;2022-08-19T08:49:32;24.30;99.90
16732;DHT22;8484;50.904;9.192;2022-08-19T08:52:04;24.30;99.90
16732;DHT22;8484;50.904;9.192;2022-08-19T08:54:35;24.80;99.90
16732;DHT22;8484;50.904;9.192;2022-08-19T08:57:07;25.20;99.90
16732;DHT22;8484;50.904;9.192;2022-08-19T08:59:40;25.00;99.90
16732;DHT22;8484;50.904;9.192;2022-08-19T09:02:08;24.80;99.90
16732;DHT22;8484;50.904;9.192;2022-08-19T09:04:35;24.70;99.90
16732;DHT22;8484;50.904;9.192;2022-08-19T09:07:15;24.80;99.90
16732;DHT22;8484;50.904;9.192;2022-08-19T09:09:47;24.90;99.90
16732;DHT22;8484;50.904;9.192;2022-08-19T09:12:19;25.20;99.90
16732;DHT22;8484;50.904;9.192;2022-08-19T09:14:55;25.50;99.90
16732;DHT22;8484;50.904;9.192;2022-08-19T09:17:26;25.90;99.90
16732;DHT22;8484;50.904;9.192;2022-08-19T09:19:57;26.10;99.90
16732;DHT22;8484;50.904;9.192;2022-08-19T09:22:26;25.90;99.90
16732;DHT22;8484;50.904;9.192;2022-08-19T09:24:54;26.00;99.90
16732;DHT22;8484;50.904;9.192;2022-08-19T09:27:21;25.90;99.90
16732;DHT22;8484;50.904;9.192;2022-08-19T09:29:49;25.70;99.90
16732;DHT22;8484;50.904;9.192;2022-08-19T09:32:17;25.50;99.90
16732;DHT22;8484;50.904;9.192;2022-08-19T09:34:44;25.90;99.90
16732;DHT22;8484;50.904;9.192;2022-08-19T09:37:12;25.90;99.90
16732;DHT22;8484;50.904;9.192;2022-08-19T09:39:39;25.60;99.90
16732;DHT22;8484;50.904;9.192;2022-08-19T09:42:08;25.80;99.90
16732;DHT22;8484;50.904;9.192;2022-08-19T09:44:37;25.70;99.90
16732;DHT22;8484;50.904;9.192;2022-08-19T09:47:05;25.60;99.90
16732;DHT22;8484;50.904;9.192;2022-08-19T09:49:34;25.40;99.90
16732;DHT22;8484;50.904;9.192;2022-08-19T09:52:01;25.50;99.90
16732;DHT22;8484;50.904;9.192;2022-08-19T09:54:28;25.40;99.90
16732;DHT22;8484;50.904;9.192;2022-08-19T09:56:55;25.50;99.90
16732;DHT22;8484;50.904;9.192;2022-08-19T09:59:24;25.20;99.90
16732;DHT22;8484;50.904;9.192;2022-08-19T10:01:50;25.20;99.90
16732;DHT22;8484;50.904;9.192;2022-08-19T10:04:17;24.80;99.90
16732;DHT22;8484;50.904;9.192;2022-08-19T10:06:47;24.60;99.90
16732;DHT22;8484;50.904;9.192;2022-08-19T10:09:16;24.80;99.90
16732;DHT22;8484;50.904;9.192;2022-08-19T10:11:44;24.60;99.90
16732;DHT22;8484;50.904;9.192;2022-08-19T10:14:13;24.90;99.90
16732;DHT22;8484;50.904;9.192;2022-08-19T10:16:40;25.20;99.90
16732;DHT22;8484;50.904;9.192;2022-08-19T10:19:08;25.50;99.90
16732;DHT22;8484;50.904;9.192;2022-08-19T10:21:36;25.80;99.90
16732;DHT22;8484;50.904;9.192;2022-08-19T10:24:05;26.10;99.90
16732;DHT22;8484;50.904;9.192;2022-08-19T10:26:34;26.90;99.90
16732;DHT22;8484;50.904;9.192;2022-08-19T10:29:03;27.10;99.90
16732;DHT22;8484;50.904;9.192;2022-08-19T10:31:32;26.90;99.60
16732;DHT22;8484;50.904;9.192;2022-08-19T10:34:00;26.60;99.70
16732;DHT22;8484;50.904;9.192;2022-08-19T10:36:28;26.10;99.80
16732;DHT22;8484;50.904;9.192;2022-08-19T10:38:58;25.80;99.90
16732;DHT22;8484;50.904;9.192;2022-08-19T10:41:29;25.70;99.90
16732;DHT22;8484;50.904;9.192;2022-08-19T10:43:58;25.70;99.90
16732;DHT22;8484;50.904;9.192;2022-08-19T10:46:26;25.40;99.90
16732;DHT22;8484;50.904;9.192;2022-08-19T10:48:58;25.90;99.90
16732;DHT22;8484;50.904;9.192;2022-08-19T10:51:25;27.00;99.80
16732;DHT22;8484;50.904;9.192;2022-08-19T10:54:10;28.10;98.90
16732;DHT22;8484;50.904;9.192;2022-08-19T10:56:38;28.60;98.30
16732;DHT22;8484;50.904;9.192;2022-08-19T10:59:21;28.30;99.00
16732;DHT22;8484;50.904;9.192;2022-08-19T11:01:50;29.00;96.90
16732;DHT22;8484;50.904;9.192;2022-08-19T11:04:18;30.20;94.50
16732;DHT22;8484;50.904;9.192;2022-08-19T11:06:47;28.90;96.00
16732;DHT22;8484;50.904;9.192;2022-08-19T11:09:14;26.90;99.10
16732;DHT22;8484;50.904;9.192;2022-08-19T11:11:43;26.70;99.70
16732;DHT22;8484;50.904;9.192;2022-08-19T11:14:13;27.10;99.00
16732;DHT22;8484;50.904;9.192;2022-08-19T11:16:41;26.50;99.00
16732;DHT22;8484;50.904;9.192;2022-08-19T11:19:10;26.90;98.10
16732;DHT22;8484;50.904;9.192;2022-08-19T11:21:40;26.60;98.30
16732;DHT22;8484;50.904;9.192;2022-08-19T11:24:09;26.60;98.60
16732;DHT22;8484;50.904;9.192;2022-08-19T11:26:37;26.50;98.40
16732;DHT22;8484;50.904;9.192;2022-08-19T11:29:07;26.70;98.00
16732;DHT22;8484;50.904;9.192;2022-08-19T11:31:37;28.80;96.30
16732;DHT22;8484;50.904;9.192;2022-08-19T11:34:07;30.30;93.80
16732;DHT22;8484;50.904;9.192;2022-08-19T11:36:36;31.30;91.30
16732;DHT22;8484;50.904;9.192;2022-08-19T11:39:04;31.10;91.50
16732;DHT22;8484;50.904;9.192;2022-08-19T11:41:31;31.50;90.60
16732;DHT22;8484;50.904;9.192;2022-08-19T11:43:58;31.10;90.40
16732;DHT22;8484;50.904;9.192;2022-08-19T11:46:27;30.20;91.40
16732;DHT22;8484;50.904;9.192;2022-08-19T11:48:54;29.10;92.60
16732;DHT22;8484;50.904;9.192;2022-08-19T11:51:23;28.20;93.50
16732;DHT22;8484;50.904;9.192;2022-08-19T11:53:52;28.00;94.10
16732;DHT22;8484;50.904;9.192;2022-08-19T11:56:19;28.30;94.00
16732;DHT22;8484;50.904;9.192;2022-08-19T11:58:46;29.00;93.00
16732;DHT22;8484;50.904;9.192;2022-08-19T12:01:15;29.10;91.80
16732;DHT22;8484;50.904;9.192;2022-08-19T12:03:45;27.90;92.50
16732;DHT22;8484;50.904;9.192;2022-08-19T12:06:16;28.00;93.20
16732;DHT22;8484;50.904;9.192;2022-08-19T12:08:44;28.40;92.30
16732;DHT22;8484;50.904;9.192;2022-08-19T12:11:12;28.90;91.70
16732;DHT22;8484;50.904;9.192;2022-08-19T12:13:40;28.10;92.80
16732;DHT22;8484;50.904;9.192;2022-08-19T12:16:14;28.40;93.20
16732;DHT22;8484;50.904;9.192;2022-08-19T12:18:44;28.60;93.10
16732;DHT22;8484;50.904;9.192;2022-08-19T12:21:11;28.50;92.90
16732;DHT22;8484;50.904;9.192;2022-08-19T12:23:39;29.10;92.80
16732;DHT22;8484;50.904;9.192;2022-08-19T12:26:06;29.90;92.40
16732;DHT22;8484;50.904;9.192;2022-08-19T12:28:33;30.10;91.20
16732;DHT22;8484;50.904;9.192;2022-08-19T12:31:00;31.50;89.80
16732;DHT22;8484;50.904;9.192;2022-08-19T12:33:27;31.10;87.10
16732;DHT22;8484;50.904;9.192;2022-08-19T12:36:00;30.20;89.40
16732;DHT22;8484;50.904;9.192;2022-08-19T12:38:27;30.10;90.10
16732;DHT22;8484;50.904;9.192;2022-08-19T12:40:54;29.00;92.00
16732;DHT22;8484;50.904;9.192;2022-08-19T12:43:21;28.40;92.10
16732;DHT22;8484;50.904;9.192;2022-08-19T12:45:48;28.60;92.20
16732;DHT22;8484;50.904;9.192;2022-08-19T12:48:15;28.60;92.20
16732;DHT22;8484;50.904;9.192;2022-08-19T12:50:44;28.80;91.90
16732;DHT22;8484;50.904;9.192;2022-08-19T12:53:14;28.90;91.50
16732;DHT22;8484;50.904;9.192;2022-08-19T12:55:41;30.00;90.90
16732;DHT22;8484;50.904;9.192;2022-08-19T12:58:09;30.70;88.50
16732;DHT22;8484;50.904;9.192;2022-08-19T13:00:37;31.50;85.00
16732;DHT22;8484;50.904;9.192;2022-08-19T13:03:04;32.10;84.80
16732;DHT22;8484;50.904;9.192;2022-08-19T13:05:32;31.50;83.60
16732;DHT22;8484;50.904;9.192;2022-08-19T13:08:00;30.00;86.80
16732;DHT22;8484;50.904;9.192;2022-08-19T13:10:31;29.80;87.60
16732;DHT22;8484;50.904;9.192;2022-08-19T13:13:01;29.50;88.10
16732;DHT22;8484;50.904;9.192;2022-08-19T13:15:28;29.60;88.20
16732;DHT22;8484;50.904;9.192;2022-08-19T13:17:57;29.30;88.10
16732;DHT22;8484;50.904;9.192;2022-08-19T13:20:25;29.10;88.30
16732;DHT22;8484;50.904;9.192;2022-08-19T13:22:52;29.00;88.60
16732;DHT22;8484;50.904;9.192;2022-08-19T13:25:19;28.50;89.20
16732;DHT22;8484;50.904;9.192;2022-08-19T13:27:49;28.50;90.10
16732;DHT22;8484;50.904;9.192;2022-08-19T13:30:17;28.40;89.10
16732;DHT22;8484;50.904;9.192;2022-08-19T13:33:02;28.50;89.00
16732;DHT22;8484;50.904;9.192;2022-08-19T13:35:41;28.60;88.10
16732;DHT22;8484;50.904;9.192;2022-08-19T13:38:08;28.40;88.00
16732;DHT22;8484;50.904;9.192;2022-08-19T13:40:36;28.40;88.20
16732;DHT22;8484;50.904;9.192;2022-08-19T13:43:04;28.40;88.70
16732;DHT22;8484;50.904;9.192;2022-08-19T13:45:33;28.80;86.50
16732;DHT22;8484;50.904;9.192;2022-08-19T13:48:01;29.20;85.10
16732;DHT22;8484;50.904;9.192;2022-08-19T13:50:33;29.30;84.90
16732;DHT22;8484;50.904;9.192;2022-08-19T13:53:00;29.60;83.20
16732;DHT22;8484;50.904;9.192;2022-08-19T13:55:28;29.50;83.20
16732;DHT22;8484;50.904;9.192;2022-08-19T13:57:57;29.30;83.20
16732;DHT22;8484;50.904;9.192;2022-08-19T14:00:28;29.00;83.30
16732;DHT22;8484;50.904;9.192;2022-08-19T14:02:56;28.70;85.60
16732;DHT22;8484;50.904;9.192;2022-08-19T14:05:24;28.60;86.30
16732;DHT22;8484;50.904;9.192;2022-08-19T14:07:52;28.60;85.90
16732;DHT22;8484;50.904;9.192;2022-08-19T14:10:19;29.20;86.30
16732;DHT22;8484;50.904;9.192;2022-08-19T14:12:47;29.70;84.70
16732;DHT22;8484;50.904;9.192;2022-08-19T14:15:14;29.80;84.80
16732;DHT22;8484;50.904;9.192;2022-08-19T14:17:44;29.70;85.00
16732;DHT22;8484;50.904;9.192;2022-08-19T14:20:16;29.40;84.50
16732;DHT22;8484;50.904;9.192;2022-08-19T14:22:44;29.10;85.50
16732;DHT22;8484;50.904;9.192;2022-08-19T14:25:15;28.70;86.40
16732;DHT22;8484;50.904;9.192;2022-08-19T14:27:43;28.50;87.40
16732;DHT22;8484;50.904;9.192;2022-08-19T14:30:12;28.60;87.50
16732;DHT22;8484;50.904;9.192;2022-08-19T14:32:40;28.50;86.10
16732;DHT22;8484;50.904;9.192;2022-08-19T14:35:12;28.70;86.60
16732;DHT22;8484;50.904;9.192;2022-08-19T14:37:40;28.80;87.30
16732;DHT22;8484;50.904;9.192;2022-08-19T14:40:08;28.90;85.80
16732;DHT22;8484;50.904;9.192;2022-08-19T14:42:36;28.80;86.20
16732;DHT22;8484;50.904;9.192;2022-08-19T14:45:04;29.10;85.60
16732;DHT22;8484;50.904;9.192;2022-08-19T14:47:31;29.10;84.80
16732;DHT22;8484;50.904;9.192;2022-08-19T14:49:58;28.60;84.70
16732;DHT22;8484;50.904;9.192;2022-08-19T14:52:27;28.30;84.50
16732;DHT22;8484;50.904;9.192;2022-08-19T14:54:54;28.50;84.10
16732;DHT22;8484;50.904;9.192;2022-08-19T14:57:21;28.40;83.50
16732;DHT22;8484;50.904;9.192;2022-08-19T14:59:48;28.40;83.40
16732;DHT22;8484;50.904;9.192;2022-08-19T15:02:15;28.50;82.40
16732;DHT22;8484;50.904;9.192;2022-08-19T15:04:42;28.40;82.60
16732;DHT22;8484;50.904;9.192;2022-08-19T15:07:09;28.50;81.50
16732;DHT22;8484;50.904;9.192;2022-08-19T15:09:37;28.40;81.20
16732;DHT22;8484;50.904;9.192;2022-08-19T15:12:05;28.50;81.30
16732;DHT22;8484;50.904;9.192;2022-08-19T15:14:31;28.50;81.80
16732;DHT22;8484;50.904;9.192;2022-08-19T15:17:01;28.40;81.70
16732;DHT22;8484;50.904;9.192;2022-08-19T15:19:29;28.40;81.60
16732;DHT22;8484;50.904;9.192;2022-08-19T15:21:56;28.30;81.40
16732;DHT22;8484;50.904;9.192;2022-08-19T15:24:23;28.20;82.00
16732;DHT22;8484;50.904;9.192;2022-08-19T15:26:52;28.10;82.40
16732;DHT22;8484;50.904;9.192;2022-08-19T15:29:19;28.00;83.60
16732;DHT22;8484;50.904;9.192;2022-08-19T15:31:48;27.90;83.80
16732;DHT22;8484;50.904;9.192;2022-08-19T15:34:16;27.70;84.50
16732;DHT22;8484;50.904;9.192;2022-08-19T15:36:43;27.50;85.80
16732;DHT22;8484;50.904;9.192;2022-08-19T15:39:10;27.40;86.50
16732;DHT22;8484;50.904;9.192;2022-08-19T15:41:37;27.40;87.20
16732;DHT22;8484;50.904;9.192;2022-08-19T15:44:08;27.50;87.20
16732;DHT22;8484;50.904;9.192;2022-08-19T15:46:39;27.50;87.30
16732;DHT22;8484;50.904;9.192;2022-08-19T15:49:07;27.30;87.10
16732;DHT22;8484;50.904;9.192;2022-08-19T15:51:34;27.40;87.20
16732;DHT22;8484;50.904;9.192;2022-08-19T15:54:04;27.30;87.00